sensor_id;sensor_type;location;lat;lon;timestamp;temperature;humidity
67572;SHT31;54397;47.506;19.158;2024-01-30T00:01:03;3.15;62.95
67572;SHT31;54397;47.506;19.158;2024-01-30T00:04:24;2.93;63.60
67572;SHT31;54397;47.506;19.158;2024-01-30T00:07:46;3.07;63.05
67572;SHT31;54397;47.506;19.158;2024-01-30T00:11:08;3.14;62.42
67572;SHT31;54397;47.506;19.158;2024-01-30T00:14:30;3.08;63.00
67572;SHT31;54397;47.506;19.158;2024-01-30T00:17:51;3.14;62.37
67572;SHT31;54397;47.506;19.158;2024-01-30T00:21:14;2.93;63.11
67572;SHT31;54397;47.506;19.158;2024-01-30T00:24:35;2.79;63.59
67572;SHT31;54397;47.506;19.158;2024-01-30T00:28:00;2.73;64.44
67572;SHT31;54397;47.506;19.158;2024-01-30T00:31:24;2.83;63.62
67572;SHT31;54397;47.506;19.158;2024-01-30T00:34:46;2.56;64.04
67572;SHT31;54397;47.506;19.158;2024-01-30T00:38:08;2.66;63.85
67572;SHT31;54397;47.506;19.158;2024-01-30T00:41:29;2.79;62.88
67572;SHT31;54397;47.506;19.158;2024-01-30T00:44:53;2.89;62.31
67572;SHT31;54397;47.506;19.158;2024-01-30T00:48:15;2.60;63.42
67572;SHT31;54397;47.506;19.158;2024-01-30T00:51:37;2.84;62.22
67572;SHT31;54397;47.506;19.158;2024-01-30T00:54:59;2.75;62.51
67572;SHT31;54397;47.506;19.158;2024-01-30T00:58:21;2.49;63.88
67572;SHT31;54397;47.506;19.158;2024-01-30T01:01:45;2.71;62.68
67572;SHT31;54397;47.506;19.158;2024-01-30T01:05:09;2.72;62.94
67572;SHT31;54397;47.506;19.158;2024-01-30T01:08:31;2.66;63.07
67572;SHT31;54397;47.506;19.158;2024-01-30T01:11:53;2.72;62.46
67572;SHT31;54397;47.506;19.158;2024-01-30T01:15:14;2.82;61.82
67572;SHT31;54397;47.506;19.158;2024-01-30T01:18:38;2.82;62.00
67572;SHT31;54397;47.506;19.158;2024-01-30T01:22:00;2.36;63.08
67572;SHT31;54397;47.506;19.158;2024-01-30T01:25:24;2.03;64.90
67572;SHT31;54397;47.506;19.158;2024-01-30T01:28:49;2.17;64.41
67572;SHT31;54397;47.506;19.158;2024-01-30T01:32:11;2.06;65.53
67572;SHT31;54397;47.506;19.158;2024-01-30T01:35:32;1.91;65.79
67572;SHT31;54397;47.506;19.158;2024-01-30T01:38:56;2.14;65.38
67572;SHT31;54397;47.506;19.158;2024-01-30T01:42:20;2.27;64.43
67572;SHT31;54397;47.506;19.158;2024-01-30T01:45:45;2.50;62.91
67572;SHT31;54397;47.506;19.158;2024-01-30T01:49:07;2.55;62.39
67572;SHT31;54397;47.506;19.158;2024-01-30T01:52:29;2.14;64.25
67572;SHT31;54397;47.506;19.158;2024-01-30T01:55:54;2.07;64.37
67572;SHT31;54397;47.506;19.158;2024-01-30T01:59:17;1.97;64.50
67572;SHT31;54397;47.506;19.158;2024-01-30T02:02:39;1.70;65.93
67572;SHT31;54397;47.506;19.158;2024-01-30T02:06:02;1.60;66.10
67572;SHT31;54397;47.506;19.158;2024-01-30T02:09:27;1.34;65.96
67572;SHT31;54397;47.506;19.158;2024-01-30T02:12:51;1.90;64.76
67572;SHT31;54397;47.506;19.158;2024-01-30T02:16:12;2.18;63.09
67572;SHT31;54397;47.506;19.158;2024-01-30T02:19:34;2.24;62.44
67572;SHT31;54397;47.506;19.158;2024-01-30T02:22:58;1.87;63.74
67572;SHT31;54397;47.506;19.158;2024-01-30T02:26:22;1.96;63.85
67572;SHT31;54397;47.506;19.158;2024-01-30T02:29:44;2.15;62.56
67572;SHT31;54397;47.506;19.158;2024-01-30T02:33:06;1.97;63.14
67572;SHT31;54397;47.506;19.158;2024-01-30T02:36:30;1.84;64.07
67572;SHT31;54397;47.506;19.158;2024-01-30T02:39:56;1.49;65.15
67572;SHT31;54397;47.506;19.158;2024-01-30T02:43:18;1.56;65.72
67572;SHT31;54397;47.506;19.158;2024-01-30T02:46:43;1.98;63.64
67572;SHT31;54397;47.506;19.158;2024-01-30T02:50:05;2.00;63.28
67572;SHT31;54397;47.506;19.158;2024-01-30T02:53:27;2.20;62.35
67572;SHT31;54397;47.506;19.158;2024-01-30T02:56:48;2.13;62.46
67572;SHT31;54397;47.506;19.158;2024-01-30T03:00:13;1.66;64.42
67572;SHT31;54397;47.506;19.158;2024-01-30T03:03:38;1.97;62.51
67572;SHT31;54397;47.506;19.158;2024-01-30T03:07:04;1.59;64.19
67572;SHT31;54397;47.506;19.158;2024-01-30T03:10:26;1.67;63.46
67572;SHT31;54397;47.506;19.158;2024-01-30T03:13:48;1.77;63.22
67572;SHT31;54397;47.506;19.158;2024-01-30T03:17:09;1.64;64.02
67572;SHT31;54397;47.506;19.158;2024-01-30T03:20:31;1.79;62.70
67572;SHT31;54397;47.506;19.158;2024-01-30T03:23:53;1.58;63.27
67572;SHT31;54397;47.506;19.158;2024-01-30T03:27:15;1.67;63.43
67572;SHT31;54397;47.506;19.158;2024-01-30T03:30:38;1.56;63.31
67572;SHT31;54397;47.506;19.158;2024-01-30T03:34:01;1.62;63.53
67572;SHT31;54397;47.506;19.158;2024-01-30T03:37:25;1.74;63.23
67572;SHT31;54397;47.506;19.158;2024-01-30T03:40:47;1.84;62.45
67572;SHT31;54397;47.506;19.158;2024-01-30T03:44:13;1.79;62.58
67572;SHT31;54397;47.506;19.158;2024-01-30T03:47:35;1.27;64.83
67572;SHT31;54397;47.506;19.158;2024-01-30T03:50:57;1.20;65.60
67572;SHT31;54397;47.506;19.158;2024-01-30T03:54:18;1.11;66.02
67572;SHT31;54397;47.506;19.158;2024-01-30T03:57:41;1.18;65.40
67572;SHT31;54397;47.506;19.158;2024-01-30T04:01:03;1.25;64.67
67572;SHT31;54397;47.506;19.158;2024-01-30T04:04:25;1.48;63.75
67572;SHT31;54397;47.506;19.158;2024-01-30T04:07:52;1.24;64.42
67572;SHT31;54397;47.506;19.158;2024-01-30T04:11:14;1.42;63.96
67572;SHT31;54397;47.506;19.158;2024-01-30T04:14:39;1.55;62.76
67572;SHT31;54397;47.506;19.158;2024-01-30T04:18:01;1.76;61.86
67572;SHT31;54397;47.506;19.158;2024-01-30T04:21:25;1.67;62.45
67572;SHT31;54397;47.506;19.158;2024-01-30T04:24:49;1.56;62.58
67572;SHT31;54397;47.506;19.158;2024-01-30T04:28:14;1.42;64.04
67572;SHT31;54397;47.506;19.158;2024-01-30T04:31:36;0.85;65.75
67572;SHT31;54397;47.506;19.158;2024-01-30T04:34:58;1.02;65.80
67572;SHT31;54397;47.506;19.158;2024-01-30T04:38:20;1.36;64.20
67572;SHT31;54397;47.506;19.158;2024-01-30T04:41:44;1.55;63.18
67572;SHT31;54397;47.506;19.158;2024-01-30T04:45:06;1.38;63.99
67572;SHT31;54397;47.506;19.158;2024-01-30T04:48:30;1.09;64.95
67572;SHT31;54397;47.506;19.158;2024-01-30T04:51:52;1.25;63.91
67572;SHT31;54397;47.506;19.158;2024-01-30T04:55:16;1.00;64.86
67572;SHT31;54397;47.506;19.158;2024-01-30T04:58:42;1.38;63.34
67572;SHT31;54397;47.506;19.158;2024-01-30T05:02:04;1.17;64.46
67572;SHT31;54397;47.506;19.158;2024-01-30T05:05:28;1.05;65.17
67572;SHT31;54397;47.506;19.158;2024-01-30T05:08:52;1.12;64.43
67572;SHT31;54397;47.506;19.158;2024-01-30T05:12:16;1.58;62.26
67572;SHT31;54397;47.506;19.158;2024-01-30T05:15:40;1.40;62.80
67572;SHT31;54397;47.506;19.158;2024-01-30T05:19:07;1.49;62.82
67572;SHT31;54397;47.506;19.158;2024-01-30T05:22:31;1.48;62.73
67572;SHT31;54397;47.506;19.158;2024-01-30T05:25:55;1.43;62.89
67572;SHT31;54397;47.506;19.158;2024-01-30T05:29:24;1.59;62.75
67572;SHT31;54397;47.506;19.158;2024-01-30T05:32:46;1.63;64.02
67572;SHT31;54397;47.506;19.158;2024-01-30T05:36:08;1.62;64.17
67572;SHT31;54397;47.506;19.158;2024-01-30T05:39:35;1.46;65.01
67572;SHT31;54397;47.506;19.158;2024-01-30T05:42:57;1.21;65.20
67572;SHT31;54397;47.506;19.158;2024-01-30T05:46:24;1.34;65.58
67572;SHT31;54397;47.506;19.158;2024-01-30T05:49:46;1.40;65.48
67572;SHT31;54397;47.506;19.158;2024-01-30T05:53:08;1.36;65.61
67572;SHT31;54397;47.506;19.158;2024-01-30T05:56:29;1.55;65.58
67572;SHT31;54397;47.506;19.158;2024-01-30T05:59:53;1.60;65.66
67572;SHT31;54397;47.506;19.158;2024-01-30T06:03:15;1.70;65.52
67572;SHT31;54397;47.506;19.158;2024-01-30T06:06:39;1.74;65.51
67572;SHT31;54397;47.506;19.158;2024-01-30T06:10:01;1.76;65.31
67572;SHT31;54397;47.506;19.158;2024-01-30T06:13:23;1.81;65.32
67572;SHT31;54397;47.506;19.158;2024-01-30T06:16:45;1.71;66.20
67572;SHT31;54397;47.506;19.158;2024-01-30T06:20:07;1.73;66.08
67572;SHT31;54397;47.506;19.158;2024-01-30T06:23:31;1.63;66.30
67572;SHT31;54397;47.506;19.158;2024-01-30T06:26:52;1.81;65.76
67572;SHT31;54397;47.506;19.158;2024-01-30T06:30:18;1.94;64.55
67572;SHT31;54397;47.506;19.158;2024-01-30T06:33:39;1.74;65.46
67572;SHT31;54397;47.506;19.158;2024-01-30T06:37:04;1.80;64.02
67572;SHT31;54397;47.506;19.158;2024-01-30T06:40:25;1.70;63.67
67572;SHT31;54397;47.506;19.158;2024-01-30T06:43:50;1.87;76.56
67572;SHT31;54397;47.506;19.158;2024-01-30T06:47:14;2.35;88.60
67572;SHT31;54397;47.506;19.158;2024-01-30T06:50:35;2.71;88.04
67572;SHT31;54397;47.506;19.158;2024-01-30T06:53:57;3.04;87.19
67572;SHT31;54397;47.506;19.158;2024-01-30T06:57:21;3.11;75.45
67572;SHT31;54397;47.506;19.158;2024-01-30T07:00:43;3.18;75.33
67572;SHT31;54397;47.506;19.158;2024-01-30T07:04:07;3.00;63.34
67572;SHT31;54397;47.506;19.158;2024-01-30T07:07:29;2.79;63.41
67572;SHT31;54397;47.506;19.158;2024-01-30T07:10:51;2.60;64.19
67572;SHT31;54397;47.506;19.158;2024-01-30T07:14:21;2.49;64.98
67572;SHT31;54397;47.506;19.158;2024-01-30T07:17:45;2.36;65.38
67572;SHT31;54397;47.506;19.158;2024-01-30T07:21:07;2.28;66.26
67572;SHT31;54397;47.506;19.158;2024-01-30T07:24:29;2.35;65.47
67572;SHT31;54397;47.506;19.158;2024-01-30T07:27:53;2.41;65.70
67572;SHT31;54397;47.506;19.158;2024-01-30T07:31:17;2.39;66.05
67572;SHT31;54397;47.506;19.158;2024-01-30T07:34:42;2.36;67.22
67572;SHT31;54397;47.506;19.158;2024-01-30T07:38:23;2.59;66.88
67572;SHT31;54397;47.506;19.158;2024-01-30T07:41:47;2.63;67.07
67572;SHT31;54397;47.506;19.158;2024-01-30T07:45:09;2.75;66.88
67572;SHT31;54397;47.506;19.158;2024-01-30T07:48:33;2.72;70.55
67572;SHT31;54397;47.506;19.158;2024-01-30T07:51:55;3.27;82.11
67572;SHT31;54397;47.506;19.158;2024-01-30T07:55:25;3.65;81.91
67572;SHT31;54397;47.506;19.158;2024-01-30T07:58:49;4.16;80.18
67572;SHT31;54397;47.506;19.158;2024-01-30T08:02:13;4.68;78.70
67572;SHT31;54397;47.506;19.158;2024-01-30T08:05:35;5.24;78.02
67572;SHT31;54397;47.506;19.158;2024-01-30T08:09:00;5.76;76.08
67572;SHT31;54397;47.506;19.158;2024-01-30T08:12:25;6.16;64.84
67572;SHT31;54397;47.506;19.158;2024-01-30T08:15:49;6.24;62.31
67572;SHT31;54397;47.506;19.158;2024-01-30T08:19:10;6.20;61.92
67572;SHT31;54397;47.506;19.158;2024-01-30T08:22:32;6.19;62.47
67572;SHT31;54397;47.506;19.158;2024-01-30T08:25:54;6.29;61.95
67572;SHT31;54397;47.506;19.158;2024-01-30T08:29:16;6.26;62.87
67572;SHT31;54397;47.506;19.158;2024-01-30T08:32:38;6.58;61.40
67572;SHT31;54397;47.506;19.158;2024-01-30T08:36:02;6.50;62.33
67572;SHT31;54397;47.506;19.158;2024-01-30T08:39:24;6.84;61.36
67572;SHT31;54397;47.506;19.158;2024-01-30T08:42:48;7.19;60.82
67572;SHT31;54397;47.506;19.158;2024-01-30T08:46:16;7.30;60.07
67572;SHT31;54397;47.506;19.158;2024-01-30T08:49:38;7.44;60.05
67572;SHT31;54397;47.506;19.158;2024-01-30T08:53:00;7.37;60.34
67572;SHT31;54397;47.506;19.158;2024-01-30T08:56:24;7.61;59.60
67572;SHT31;54397;47.506;19.158;2024-01-30T08:59:46;7.61;59.62
67572;SHT31;54397;47.506;19.158;2024-01-30T09:03:07;7.81;59.50
67572;SHT31;54397;47.506;19.158;2024-01-30T09:06:29;7.86;59.30
67572;SHT31;54397;47.506;19.158;2024-01-30T09:09:54;7.92;59.24
67572;SHT31;54397;47.506;19.158;2024-01-30T09:16:56;8.53;69.66
67572;SHT31;54397;47.506;19.158;2024-01-30T09:20:18;9.25;77.84
67572;SHT31;54397;47.506;19.158;2024-01-30T09:23:41;9.81;72.09
67572;SHT31;54397;47.506;19.158;2024-01-30T09:27:06;10.23;64.69
67572;SHT31;54397;47.506;19.158;2024-01-30T09:30:27;10.36;64.31
67572;SHT31;54397;47.506;19.158;2024-01-30T09:33:49;10.39;55.77
67572;SHT31;54397;47.506;19.158;2024-01-30T09:37:15;9.80;55.96
67572;SHT31;54397;47.506;19.158;2024-01-30T09:40:40;9.27;57.54
67572;SHT31;54397;47.506;19.158;2024-01-30T09:44:04;9.05;58.57
67572;SHT31;54397;47.506;19.158;2024-01-30T09:47:27;8.93;58.57
67572;SHT31;54397;47.506;19.158;2024-01-30T09:50:52;8.64;59.37
67572;SHT31;54397;47.506;19.158;2024-01-30T09:54:15;8.54;60.11
67572;SHT31;54397;47.506;19.158;2024-01-30T09:57:38;9.20;59.73
67572;SHT31;54397;47.506;19.158;2024-01-30T10:01:02;9.42;58.65
67572;SHT31;54397;47.506;19.158;2024-01-30T10:04:26;9.54;58.08
67572;SHT31;54397;47.506;19.158;2024-01-30T10:07:56;9.63;57.99
67572;SHT31;54397;47.506;19.158;2024-01-30T10:11:19;10.08;57.42
67572;SHT31;54397;47.506;19.158;2024-01-30T10:14:41;10.63;55.77
67572;SHT31;54397;47.506;19.158;2024-01-30T10:18:06;10.87;55.06
67572;SHT31;54397;47.506;19.158;2024-01-30T10:21:32;10.81;54.01
67572;SHT31;54397;47.506;19.158;2024-01-30T10:24:56;10.74;54.52
67572;SHT31;54397;47.506;19.158;2024-01-30T10:28:29;10.31;55.02
67572;SHT31;54397;47.506;19.158;2024-01-30T10:32:02;9.95;55.94
67572;SHT31;54397;47.506;19.158;2024-01-30T10:35:24;10.50;55.78
67572;SHT31;54397;47.506;19.158;2024-01-30T10:38:49;11.32;53.84
67572;SHT31;54397;47.506;19.158;2024-01-30T10:42:18;12.21;51.50
67572;SHT31;54397;47.506;19.158;2024-01-30T10:45:40;12.68;49.87
67572;SHT31;54397;47.506;19.158;2024-01-30T10:49:10;12.76;48.75
67572;SHT31;54397;47.506;19.158;2024-01-30T10:52:32;13.00;48.40
67572;SHT31;54397;47.506;19.158;2024-01-30T10:55:54;13.24;47.23
67572;SHT31;54397;47.506;19.158;2024-01-30T10:59:20;12.80;47.61
67572;SHT31;54397;47.506;19.158;2024-01-30T11:02:47;12.28;49.57
67572;SHT31;54397;47.506;19.158;2024-01-30T11:06:12;12.37;49.78
67572;SHT31;54397;47.506;19.158;2024-01-30T11:09:40;12.86;48.52
67572;SHT31;54397;47.506;19.158;2024-01-30T11:13:10;13.40;47.27
67572;SHT31;54397;47.506;19.158;2024-01-30T11:16:34;13.43;47.00
67572;SHT31;54397;47.506;19.158;2024-01-30T11:19:59;13.24;46.97
67572;SHT31;54397;47.506;19.158;2024-01-30T11:23:23;13.02;47.36
67572;SHT31;54397;47.506;19.158;2024-01-30T11:26:58;13.13;46.70
67572;SHT31;54397;47.506;19.158;2024-01-30T11:30:30;12.63;47.07
67572;SHT31;54397;47.506;19.158;2024-01-30T11:33:52;11.91;49.16
67572;SHT31;54397;47.506;19.158;2024-01-30T11:37:20;12.44;48.81
67572;SHT31;54397;47.506;19.158;2024-01-30T11:40:43;13.20;47.20
67572;SHT31;54397;47.506;19.158;2024-01-30T11:44:08;12.86;46.39
67572;SHT31;54397;47.506;19.158;2024-01-30T11:47:34;13.00;47.02
67572;SHT31;54397;47.506;19.158;2024-01-30T11:51:02;13.28;45.77
67572;SHT31;54397;47.506;19.158;2024-01-30T11:54:26;13.69;45.19
67572;SHT31;54397;47.506;19.158;2024-01-30T11:57:48;13.83;45.17
67572;SHT31;54397;47.506;19.158;2024-01-30T12:01:10;14.19;43.87
67572;SHT31;54397;47.506;19.158;2024-01-30T12:04:32;14.03;42.58
67572;SHT31;54397;47.506;19.158;2024-01-30T12:07:56;13.96;43.55
67572;SHT31;54397;47.506;19.158;2024-01-30T12:11:23;13.95;43.49
67572;SHT31;54397;47.506;19.158;2024-01-30T12:14:45;13.78;43.54
67572;SHT31;54397;47.506;19.158;2024-01-30T12:18:07;13.59;44.64
67572;SHT31;54397;47.506;19.158;2024-01-30T12:21:29;13.64;44.63
67572;SHT31;54397;47.506;19.158;2024-01-30T12:24:56;13.55;44.31
67572;SHT31;54397;47.506;19.158;2024-01-30T12:28:19;13.59;43.99
67572;SHT31;54397;47.506;19.158;2024-01-30T12:31:44;13.23;47.31
67572;SHT31;54397;47.506;19.158;2024-01-30T12:35:18;13.04;47.16
67572;SHT31;54397;47.506;19.158;2024-01-30T12:38:40;13.40;48.58
67572;SHT31;54397;47.506;19.158;2024-01-30T12:42:04;13.53;50.52
67572;SHT31;54397;47.506;19.158;2024-01-30T12:45:26;13.92;48.41
67572;SHT31;54397;47.506;19.158;2024-01-30T12:48:51;13.98;43.65
67572;SHT31;54397;47.506;19.158;2024-01-30T12:52:16;13.58;43.80
67572;SHT31;54397;47.506;19.158;2024-01-30T12:55:40;12.96;43.98
67572;SHT31;54397;47.506;19.158;2024-01-30T12:59:02;12.55;43.87
67572;SHT31;54397;47.506;19.158;2024-01-30T13:02:24;12.28;44.80
67572;SHT31;54397;47.506;19.158;2024-01-30T13:05:46;12.30;45.66
67572;SHT31;54397;47.506;19.158;2024-01-30T13:09:07;12.53;45.71
67572;SHT31;54397;47.506;19.158;2024-01-30T13:12:30;12.88;44.24
67572;SHT31;54397;47.506;19.158;2024-01-30T13:15:53;12.72;44.16
67572;SHT31;54397;47.506;19.158;2024-01-30T13:19:18;12.49;45.20
67572;SHT31;54397;47.506;19.158;2024-01-30T13:22:40;12.03;44.52
67572;SHT31;54397;47.506;19.158;2024-01-30T13:26:04;11.51;45.83
67572;SHT31;54397;47.506;19.158;2024-01-30T13:29:28;10.98;45.64
67572;SHT31;54397;47.506;19.158;2024-01-30T13:32:49;10.59;46.24
67572;SHT31;54397;47.506;19.158;2024-01-30T13:36:14;10.52;46.97
67572;SHT31;54397;47.506;19.158;2024-01-30T13:39:40;10.48;45.70
67572;SHT31;54397;47.506;19.158;2024-01-30T13:43:02;10.31;45.77
67572;SHT31;54397;47.506;19.158;2024-01-30T13:46:24;10.08;46.40
67572;SHT31;54397;47.506;19.158;2024-01-30T13:49:48;9.97;46.31
67572;SHT31;54397;47.506;19.158;2024-01-30T13:53:13;9.91;47.63
67572;SHT31;54397;47.506;19.158;2024-01-30T13:56:37;9.78;46.35
67572;SHT31;54397;47.506;19.158;2024-01-30T14:00:02;9.71;45.27
67572;SHT31;54397;47.506;19.158;2024-01-30T14:03:29;9.56;45.44
67572;SHT31;54397;47.506;19.158;2024-01-30T14:06:53;9.46;46.05
67572;SHT31;54397;47.506;19.158;2024-01-30T14:10:27;9.35;46.38
67572;SHT31;54397;47.506;19.158;2024-01-30T14:13:49;9.27;46.83
67572;SHT31;54397;47.506;19.158;2024-01-30T14:17:13;8.95;47.70
67572;SHT31;54397;47.506;19.158;2024-01-30T14:20:35;9.22;47.91
67572;SHT31;54397;47.506;19.158;2024-01-30T14:23:59;9.15;47.48
67572;SHT31;54397;47.506;19.158;2024-01-30T14:27:25;9.29;48.17
67572;SHT31;54397;47.506;19.158;2024-01-30T14:30:47;9.30;47.32
67572;SHT31;54397;47.506;19.158;2024-01-30T14:34:11;9.39;47.11
67572;SHT31;54397;47.506;19.158;2024-01-30T14:37:34;9.33;47.00
67572;SHT31;54397;47.506;19.158;2024-01-30T14:40:55;9.33;47.66
67572;SHT31;54397;47.506;19.158;2024-01-30T14:44:19;9.26;47.58
67572;SHT31;54397;47.506;19.158;2024-01-30T14:47:41;9.33;47.19
67572;SHT31;54397;47.506;19.158;2024-01-30T14:51:05;9.19;47.43
67572;SHT31;54397;47.506;19.158;2024-01-30T14:54:27;9.08;48.07
67572;SHT31;54397;47.506;19.158;2024-01-30T14:57:49;8.99;48.75
67572;SHT31;54397;47.506;19.158;2024-01-30T15:01:15;8.85;48.78
67572;SHT31;54397;47.506;19.158;2024-01-30T15:04:39;8.99;48.68
67572;SHT31;54397;47.506;19.158;2024-01-30T15:08:01;9.06;49.27
67572;SHT31;54397;47.506;19.158;2024-01-30T15:11:23;8.78;49.46
67572;SHT31;54397;47.506;19.158;2024-01-30T15:14:45;8.98;49.06
67572;SHT31;54397;47.506;19.158;2024-01-30T15:18:14;8.93;49.54
67572;SHT31;54397;47.506;19.158;2024-01-30T15:21:41;9.05;48.80
67572;SHT31;54397;47.506;19.158;2024-01-30T15:25:05;9.19;55.74
67572;SHT31;54397;47.506;19.158;2024-01-30T15:28:38;9.58;57.89
67572;SHT31;54397;47.506;19.158;2024-01-30T15:32:00;9.93;59.04
67572;SHT31;54397;47.506;19.158;2024-01-30T15:35:22;10.14;58.14
67572;SHT31;54397;47.506;19.158;2024-01-30T15:38:46;10.25;57.46
67572;SHT31;54397;47.506;19.158;2024-01-30T15:42:08;10.35;57.41
67572;SHT31;54397;47.506;19.158;2024-01-30T15:45:32;10.28;47.82
67572;SHT31;54397;47.506;19.158;2024-01-30T15:48:53;9.93;47.66
67572;SHT31;54397;47.506;19.158;2024-01-30T15:52:17;9.74;48.40
67572;SHT31;54397;47.506;19.158;2024-01-30T15:55:39;9.51;48.89
67572;SHT31;54397;47.506;19.158;2024-01-30T15:59:01;9.43;49.12
67572;SHT31;54397;47.506;19.158;2024-01-30T16:02:26;9.01;50.09
67572;SHT31;54397;47.506;19.158;2024-01-30T16:05:48;8.82;50.85
67572;SHT31;54397;47.506;19.158;2024-01-30T16:09:12;8.56;51.40
67572;SHT31;54397;47.506;19.158;2024-01-30T16:12:36;8.33;52.18
67572;SHT31;54397;47.506;19.158;2024-01-30T16:15:57;7.84;53.59
67572;SHT31;54397;47.506;19.158;2024-01-30T16:19:20;7.88;53.75
67572;SHT31;54397;47.506;19.158;2024-01-30T16:22:42;7.91;53.53
67572;SHT31;54397;47.506;19.158;2024-01-30T16:26:03;7.85;53.88
67572;SHT31;54397;47.506;19.158;2024-01-30T16:29:26;7.72;54.10
67572;SHT31;54397;47.506;19.158;2024-01-30T16:32:47;7.91;53.83
67572;SHT31;54397;47.506;19.158;2024-01-30T16:36:13;7.85;54.21
67572;SHT31;54397;47.506;19.158;2024-01-30T16:39:37;7.75;55.45
67572;SHT31;54397;47.506;19.158;2024-01-30T16:43:01;7.60;56.17
67572;SHT31;54397;47.506;19.158;2024-01-30T16:46:25;7.43;56.69
67572;SHT31;54397;47.506;19.158;2024-01-30T16:49:49;7.64;56.47
67572;SHT31;54397;47.506;19.158;2024-01-30T16:53:11;7.65;56.74
67572;SHT31;54397;47.506;19.158;2024-01-30T16:56:36;7.65;57.04
67572;SHT31;54397;47.506;19.158;2024-01-30T17:00:01;7.60;57.59
67572;SHT31;54397;47.506;19.158;2024-01-30T17:03:22;7.31;58.50
67572;SHT31;54397;47.506;19.158;2024-01-30T17:06:44;7.37;67.46
67572;SHT31;54397;47.506;19.158;2024-01-30T17:10:08;7.77;69.50
67572;SHT31;54397;47.506;19.158;2024-01-30T17:13:32;7.92;69.41
67572;SHT31;54397;47.506;19.158;2024-01-30T17:16:58;8.07;68.63
67572;SHT31;54397;47.506;19.158;2024-01-30T17:20:27;8.22;68.12
67572;SHT31;54397;47.506;19.158;2024-01-30T17:23:49;9.30;68.84
67572;SHT31;54397;47.506;19.158;2024-01-30T17:27:13;11.00;61.49
67572;SHT31;54397;47.506;19.158;2024-01-30T17:30:35;11.90;58.78
67572;SHT31;54397;47.506;19.158;2024-01-30T17:34:00;11.62;56.61
67572;SHT31;54397;47.506;19.158;2024-01-30T17:37:22;10.55;60.95
67572;SHT31;54397;47.506;19.158;2024-01-30T17:40:46;9.78;64.78
67572;SHT31;54397;47.506;19.158;2024-01-30T17:44:12;9.14;62.24
67572;SHT31;54397;47.506;19.158;2024-01-30T17:47:38;8.89;64.89
67572;SHT31;54397;47.506;19.158;2024-01-30T17:51:02;8.78;65.43
67572;SHT31;54397;47.506;19.158;2024-01-30T17:54:27;8.60;65.49
67572;SHT31;54397;47.506;19.158;2024-01-30T17:57:48;8.43;66.21
67572;SHT31;54397;47.506;19.158;2024-01-30T18:01:10;8.37;66.61
67572;SHT31;54397;47.506;19.158;2024-01-30T18:04:33;8.30;67.17
67572;SHT31;54397;47.506;19.158;2024-01-30T18:08:01;8.14;60.68
67572;SHT31;54397;47.506;19.158;2024-01-30T18:11:23;7.81;58.04
67572;SHT31;54397;47.506;19.158;2024-01-30T18:14:44;7.26;59.79
67572;SHT31;54397;47.506;19.158;2024-01-30T18:18:06;7.13;59.14
67572;SHT31;54397;47.506;19.158;2024-01-30T18:21:32;7.03;59.40
67572;SHT31;54397;47.506;19.158;2024-01-30T18:24:54;6.55;60.74
67572;SHT31;54397;47.506;19.158;2024-01-30T18:28:16;6.52;61.05
67572;SHT31;54397;47.506;19.158;2024-01-30T18:31:38;6.48;60.56
67572;SHT31;54397;47.506;19.158;2024-01-30T18:35:03;6.71;71.42
67572;SHT31;54397;47.506;19.158;2024-01-30T18:38:25;6.75;70.39
67572;SHT31;54397;47.506;19.158;2024-01-30T18:41:49;6.85;70.79
67572;SHT31;54397;47.506;19.158;2024-01-30T18:45:14;6.93;68.60
67572;SHT31;54397;47.506;19.158;2024-01-30T18:48:39;6.93;69.75
67572;SHT31;54397;47.506;19.158;2024-01-30T18:52:00;6.78;60.14
67572;SHT31;54397;47.506;19.158;2024-01-30T18:55:27;6.61;59.33
67572;SHT31;54397;47.506;19.158;2024-01-30T18:58:48;6.33;60.71
67572;SHT31;54397;47.506;19.158;2024-01-30T19:02:10;6.06;61.48
67572;SHT31;54397;47.506;19.158;2024-01-30T19:05:33;5.93;61.07
67572;SHT31;54397;47.506;19.158;2024-01-30T19:08:55;5.62;61.52
67572;SHT31;54397;47.506;19.158;2024-01-30T19:12:17;5.68;61.58
67572;SHT31;54397;47.506;19.158;2024-01-30T19:15:38;5.33;62.38
67572;SHT31;54397;47.506;19.158;2024-01-30T19:19:00;5.27;62.38
67572;SHT31;54397;47.506;19.158;2024-01-30T19:22:26;5.35;61.82
67572;SHT31;54397;47.506;19.158;2024-01-30T19:25:48;5.19;63.19
67572;SHT31;54397;47.506;19.158;2024-01-30T19:29:10;5.19;63.13
67572;SHT31;54397;47.506;19.158;2024-01-30T19:32:34;5.20;63.44
67572;SHT31;54397;47.506;19.158;2024-01-30T19:36:00;5.16;63.53
67572;SHT31;54397;47.506;19.158;2024-01-30T19:39:21;5.12;63.19
67572;SHT31;54397;47.506;19.158;2024-01-30T19:42:45;5.10;63.08
67572;SHT31;54397;47.506;19.158;2024-01-30T19:46:12;5.22;61.56
67572;SHT31;54397;47.506;19.158;2024-01-30T19:49:33;4.89;62.33
67572;SHT31;54397;47.506;19.158;2024-01-30T19:53:00;4.80;62.88
67572;SHT31;54397;47.506;19.158;2024-01-30T19:56:24;4.80;63.74
67572;SHT31;54397;47.506;19.158;2024-01-30T19:59:46;4.55;63.18
67572;SHT31;54397;47.506;19.158;2024-01-30T20:03:08;4.76;63.53
67572;SHT31;54397;47.506;19.158;2024-01-30T20:06:35;4.51;63.96
67572;SHT31;54397;47.506;19.158;2024-01-30T20:10:00;5.24;84.84
67572;SHT31;54397;47.506;19.158;2024-01-30T20:13:22;5.58;83.07
67572;SHT31;54397;47.506;19.158;2024-01-30T20:16:47;5.90;82.83
67572;SHT31;54397;47.506;19.158;2024-01-30T20:20:09;5.95;71.13
67572;SHT31;54397;47.506;19.158;2024-01-30T20:23:34;5.82;62.51
67572;SHT31;54397;47.506;19.158;2024-01-30T20:27:00;5.45;63.10
67572;SHT31;54397;47.506;19.158;2024-01-30T20:30:24;5.20;62.16
67572;SHT31;54397;47.506;19.158;2024-01-30T20:33:46;4.89;62.28
67572;SHT31;54397;47.506;19.158;2024-01-30T20:37:08;4.59;63.01
67572;SHT31;54397;47.506;19.158;2024-01-30T20:40:31;4.58;63.21
67572;SHT31;54397;47.506;19.158;2024-01-30T20:43:56;4.41;63.59
67572;SHT31;54397;47.506;19.158;2024-01-30T20:47:18;4.13;64.57
67572;SHT31;54397;47.506;19.158;2024-01-30T20:50:40;4.10;64.98
67572;SHT31;54397;47.506;19.158;2024-01-30T20:54:01;4.06;64.43
67572;SHT31;54397;47.506;19.158;2024-01-30T20:57:23;4.18;64.50
67572;SHT31;54397;47.506;19.158;2024-01-30T21:00:48;3.82;66.05
67572;SHT31;54397;47.506;19.158;2024-01-30T21:04:10;3.96;64.94
67572;SHT31;54397;47.506;19.158;2024-01-30T21:07:34;4.00;65.21
67572;SHT31;54397;47.506;19.158;2024-01-30T21:10:59;4.00;65.11
67572;SHT31;54397;47.506;19.158;2024-01-30T21:14:23;4.11;64.99
67572;SHT31;54397;47.506;19.158;2024-01-30T21:17:46;4.07;65.21
67572;SHT31;54397;47.506;19.158;2024-01-30T21:21:10;4.14;64.56
67572;SHT31;54397;47.506;19.158;2024-01-30T21:24:34;3.83;65.24